Time;durP1;ratioP1;P1;durP2;ratioP2;P2;SDS_P1;SDS_P2;PMS_P1;PMS_P2;Temp;Humidity;BMP_temperature;BMP_pressure;BME280_temperature;BME280_humidity;BME280_pressure;Samples;Min_cycle;Max_cycle;Signal;HPM_P1;HPM_P2
2021/05/31 00:02:10;;;;;;;6.35;2.95;;;;;;;9.23;42.70;96175.03;5001865;28;20085;-65
2021/05/31 00:04:36;;;;;;;4.53;2.95;;;;;;;9.18;42.50;96175.50;4992827;28;20086;-65
2021/05/31 00:07:03;;;;;;;2.60;2.33;;;;;;;9.24;42.27;96174.88;5007700;28;20786;-66
2021/05/31 00:09:56;;;;;;;4.25;2.72;;;;;;;9.16;42.71;96169.50;5007720;28;20102;-66
2021/05/31 00:12:50;;;;;;;4.20;3.25;;;;;;;9.12;42.50;96174.31;5004742;28;20514;-66
2021/05/31 00:15:16;;;;;;;4.72;2.92;;;;;;;9.05;42.61;96162.63;5007413;28;20130;-66
2021/05/31 00:17:41;;;;;;;3.30;2.58;;;;;;;9.02;42.75;96165.59;4988434;28;20909;-66
2021/05/31 00:20:08;;;;;;;3.33;2.55;;;;;;;9.00;42.59;96165.75;5006346;28;20454;-66
2021/05/31 00:22:33;;;;;;;3.97;2.80;;;;;;;8.98;43.59;96162.44;5020791;28;20108;-66
2021/05/31 00:24:59;;;;;;;6.75;2.63;;;;;;;8.94;42.85;96150.38;5005863;28;20214;-66
2021/05/31 00:27:24;;;;;;;2.85;2.50;;;;;;;8.97;42.58;96160.72;5005796;28;20358;-66
2021/05/31 00:29:50;;;;;;;6.90;2.70;;;;;;;8.96;43.09;96145.78;5003495;28;20144;-66
2021/05/31 00:32:15;;;;;;;2.67;2.33;;;;;;;9.04;43.12;96159.13;5004714;28;20578;-66
2021/05/31 00:34:41;;;;;;;4.25;2.40;;;;;;;8.97;42.69;96158.06;5003706;28;20098;-66
2021/05/31 00:37:06;;;;;;;4.80;2.70;;;;;;;8.92;42.88;96155.88;5010317;28;20082;-66
2021/05/31 00:39:32;;;;;;;3.13;2.60;;;;;;;8.95;43.01;96152.09;5021474;28;20126;-66
2021/05/31 00:41:57;;;;;;;3.72;3.13;;;;;;;8.94;43.88;96148.56;5011508;28;20126;-66
2021/05/31 00:44:23;;;;;;;3.30;2.53;;;;;;;8.93;43.20;96146.91;5010793;28;20070;-66
2021/05/31 00:46:49;;;;;;;12.52;2.83;;;;;;;8.88;43.93;96151.84;5011297;28;20098;-67
2021/05/31 00:49:18;;;;;;;5.53;2.90;;;;;;;8.88;43.59;96143.06;5010389;28;20086;-66
2021/05/31 00:51:44;;;;;;;4.10;2.88;;;;;;;8.91;43.15;96143.56;4993300;28;20106;-66
2021/05/31 00:54:10;;;;;;;3.60;2.38;;;;;;;8.91;43.12;96140.09;5009974;28;20287;-67
2021/05/31 00:56:35;;;;;;;4.50;2.72;;;;;;;8.89;43.45;96136.75;5011746;28;20090;-66
2021/05/31 00:59:00;;;;;;;4.10;3.10;;;;;;;8.88;43.46;96137.75;5024908;28;20117;-66
2021/05/31 01:01:26;;;;;;;3.38;2.80;;;;;;;8.82;43.63;96140.03;5011608;28;20106;-66
2021/05/31 01:03:51;;;;;;;4.90;2.97;;;;;;;8.79;43.37;96137.69;4995617;28;20114;-66
2021/05/31 01:06:19;;;;;;;5.18;2.97;;;;;;;8.82;43.68;96136.53;5011316;28;20093;-66
2021/05/31 01:09:05;;;;;;;5.78;3.45;;;;;;;8.78;43.38;96135.19;5010125;28;20613;-66
2021/05/31 01:11:49;;;;;;;4.65;2.90;;;;;;;8.74;43.80;96129.31;5006370;28;20192;-67
2021/05/31 01:14:29;;;;;;;3.67;2.70;;;;;;;8.65;44.06;96135.56;5006471;28;20533;-66
2021/05/31 01:17:02;;;;;;;4.60;2.90;;;;;;;8.60;43.90;96135.19;4990421;28;20538;-66
2021/05/31 01:19:51;;;;;;;5.43;3.47;;;;;;;8.53;44.22;96134.94;5000681;28;20098;-66
2021/05/31 01:22:17;;;;;;;6.45;2.90;;;;;;;8.54;43.91;96134.00;4998154;28;20110;-66
2021/05/31 01:24:55;;;;;;;4.68;2.70;;;;;;;8.58;43.78;96130.03;4999075;28;20112;-66
2021/05/31 01:27:20;;;;;;;5.07;3.10;;;;;;;8.60;43.81;96135.19;5023460;28;20106;-66
2021/05/31 01:30:06;;;;;;;5.25;2.63;;;;;;;8.56;44.61;96130.19;5010863;28;20414;-66
2021/05/31 01:32:44;;;;;;;5.70;3.35;;;;;;;8.52;44.45;96130.63;5008544;28;20106;-66
2021/05/31 01:35:11;;;;;;;4.72;3.00;;;;;;;8.44;44.28;96134.06;4993929;28;20590;-66
2021/05/31 01:37:38;;;;;;;5.30;3.10;;;;;;;8.49;44.44;96130.94;4997538;28;20097;-66
2021/05/31 01:40:06;;;;;;;6.85;2.90;;;;;;;8.52;44.49;96134.13;5001896;28;20111;-66
2021/05/31 01:42:31;;;;;;;3.05;2.75;;;;;;;8.55;44.20;96133.00;5007866;28;20113;-66
2021/05/31 01:44:57;;;;;;;6.05;3.40;;;;;;;8.46;44.31;96137.38;5009660;28;20101;-66
2021/05/31 01:47:23;;;;;;;5.65;3.20;;;;;;;8.37;44.20;96133.00;4991685;28;20193;-66
2021/05/31 01:49:48;;;;;;;4.68;3.00;;;;;;;8.27;44.36;96131.22;5025343;28;20586;-66
2021/05/31 01:52:14;;;;;;;4.97;2.95;;;;;;;8.35;44.40;96132.31;5008097;28;20110;-66
2021/05/31 01:54:40;;;;;;;2.75;2.33;;;;;;;8.43;44.20;96135.03;5008846;28;20618;-66
2021/05/31 01:57:06;;;;;;;3.70;2.80;;;;;;;8.40;44.48;96130.06;5002740;28;20085;-66
2021/05/31 01:59:32;;;;;;;4.18;3.00;;;;;;;8.54;44.20;96132.16;5009108;28;20285;-66
2021/05/31 02:01:58;;;;;;;3.30;2.80;;;;;;;8.45;44.41;96119.81;5000982;28;20271;-66
2021/05/31 02:04:23;;;;;;;3.33;2.65;;;;;;;8.35;44.25;96127.00;4992554;28;20078;-66
2021/05/31 02:06:49;;;;;;;4.60;3.00;;;;;;;8.30;44.20;96130.94;5025456;28;20117;-66
2021/05/31 02:09:15;;;;;;;3.50;2.72;;;;;;;8.30;44.38;96130.13;5008239;28;20120;-67
2021/05/31 02:12:04;;;;;;;4.22;2.53;;;;;;;8.27;45.34;96123.28;5005491;28;20525;-66
2021/05/31 02:14:54;;;;;;;4.35;3.08;;;;;;;8.17;45.45;96130.50;4997157;28;20200;-66
2021/05/31 02:17:49;;;;;;;5.20;3.17;;;;;;;8.00;45.90;96126.81;5008572;28;20082;-66
2021/05/31 02:20:17;;;;;;;5.18;3.08;;;;;;;8.02;45.91;96120.38;4991889;28;20128;-66
2021/05/31 02:22:49;;;;;;;4.85;3.13;;;;;;;8.17;45.24;96130.50;5024404;28;20105;-66
2021/05/31 02:25:15;;;;;;;6.50;2.90;;;;;;;8.29;44.94;96129.28;5008653;28;20102;-66
2021/05/31 02:27:44;;;;;;;4.95;2.92;;;;;;;8.37;44.88;96125.03;5008431;28;20700;-66
2021/05/31 02:30:10;;;;;;;4.95;3.08;;;;;;;8.37;45.52;96119.72;4991170;28;20081;-66
2021/05/31 02:32:35;;;;;;;3.22;2.70;;;;;;;8.43;45.03;96122.59;4990394;28;20083;-66
2021/05/31 02:35:01;;;;;;;6.43;3.15;;;;;;;8.53;44.81;96119.88;5008899;28;20176;-66
2021/05/31 02:37:34;;;;;;;3.33;3.00;;;;;;;8.61;44.95;96126.25;5025349;28;20098;-66
2021/05/31 02:40:00;;;;;;;3.42;2.63;;;;;;;8.69;44.43;96113.03;4993294;28;20658;-66
2021/05/31 02:42:25;;;;;;;4.13;2.92;;;;;;;8.72;44.24;96118.03;5001988;28;20129;-67
2021/05/31 02:44:51;;;;;;;3.90;2.90;;;;;;;8.75;44.37;96111.59;5009511;28;20086;-66
2021/05/31 02:47:16;;;;;;;5.22;2.97;;;;;;;8.70;44.08;96120.00;5005335;28;20125;-66
2021/05/31 02:49:41;;;;;;;3.67;2.90;;;;;;;8.72;44.12;96122.50;4998669;28;20106;-66
2021/05/31 02:52:07;;;;;;;3.15;2.85;;;;;;;8.65;43.96;96123.13;5008209;28;20124;-66
2021/05/31 02:54:32;;;;;;;5.47;3.53;;;;;;;8.56;44.55;96118.72;5008558;28;20114;-68
2021/05/31 02:56:58;;;;;;;5.40;3.33;;;;;;;8.49;44.66;96120.31;4992126;28;20086;-66
2021/05/31 02:59:23;;;;;;;3.97;2.70;;;;;;;8.46;44.49;96123.31;5008093;28;20110;-66
2021/05/31 03:01:49;;;;;;;4.18;2.90;;;;;;;8.44;44.33;96123.44;5007919;28;20106;-66
2021/05/31 03:04:14;;;;;;;4.68;2.60;;;;;;;8.55;43.86;96123.22;5005871;28;20098;-66
2021/05/31 03:06:39;;;;;;;4.57;2.50;;;;;;;8.47;43.55;96123.13;5009058;28;20557;-66
2021/05/31 03:09:05;;;;;;;3.53;2.80;;;;;;;8.41;44.40;96129.06;5004298;28;20844;-66
2021/05/31 03:11:30;;;;;;;2.78;2.58;;;;;;;8.43;44.49;96124.41;5007288;28;20124;-66
2021/05/31 03:13:56;;;;;;;3.40;2.65;;;;;;;8.50;44.37;96124.66;5008023;28;20547;-66
2021/05/31 03:16:21;;;;;;;6.22;3.10;;;;;;;8.57;44.57;96123.06;4985271;28;20611;-66
2021/05/31 03:18:47;;;;;;;6.35;3.00;;;;;;;8.70;44.79;96125.31;5023711;28;20102;-66
2021/05/31 03:21:12;;;;;;;4.75;2.65;;;;;;;8.83;44.88;96124.91;5006937;28;20098;-66
2021/05/31 03:23:37;;;;;;;3.35;2.72;;;;;;;8.94;44.39;96127.31;5006830;28;20225;-66
2021/05/31 03:26:03;;;;;;;5.05;2.63;;;;;;;9.03;44.68;96120.28;5008619;28;20082;-66
2021/05/31 03:28:28;;;;;;;3.65;2.53;;;;;;;9.11;44.32;96118.69;5007105;28;20776;-66
2021/05/31 03:30:54;;;;;;;3.95;2.88;;;;;;;9.14;45.37;96118.34;5007988;28;20585;-67
2021/05/31 03:33:19;;;;;;;3.60;2.83;;;;;;;9.19;44.82;96121.38;5009308;28;20164;-66
2021/05/31 03:35:45;;;;;;;5.22;3.20;;;;;;;9.26;44.55;96119.78;5007888;28;20563;-66
2021/05/31 03:38:10;;;;;;;5.30;2.97;;;;;;;9.30;44.95;96118.47;5007486;28;20148;-66
2021/05/31 03:40:36;;;;;;;4.05;2.70;;;;;;;9.41;44.27;96117.34;5008754;28;20078;-66
2021/05/31 03:43:01;;;;;;;8.18;3.30;;;;;;;9.39;44.00;96113.19;5006030;28;20138;-66
2021/05/31 03:45:27;;;;;;;4.55;2.63;;;;;;;9.49;43.96;96119.22;5008832;28;20082;-67
2021/05/31 03:47:52;;;;;;;3.72;2.70;;;;;;;9.67;44.12;96119.13;5008426;28;20102;-66
2021/05/31 03:50:18;;;;;;;4.88;2.75;;;;;;;9.83;43.84;96113.03;5008212;28;20113;-66
2021/05/31 03:52:44;;;;;;;5.25;2.95;;;;;;;9.90;43.34;96115.06;5009150;28;20416;-66
2021/05/31 03:55:10;;;;;;;4.60;2.88;;;;;;;9.95;43.19;96107.41;5001395;28;20103;-66
2021/05/31 03:57:36;;;;;;;4.80;2.65;;;;;;;9.98;43.52;96121.25;5008920;28;20201;-66
2021/05/31 04:00:06;;;;;;;4.47;2.80;;;;;;;10.06;43.17;96115.13;5008366;28;20098;-66
2021/05/31 04:02:31;;;;;;;4.10;2.80;;;;;;;10.12;43.51;96118.97;5008444;28;20116;-66
2021/05/31 04:04:57;;;;;;;3.38;2.88;;;;;;;10.17;42.79;96116.63;5008535;28;20074;-66
2021/05/31 04:12:51;;;;;;;4.90;3.00;;;;;;;10.21;43.21;96111.84;4993854;28;20088;-66
2021/05/31 04:15:17;;;;;;;2.90;2.60;;;;;;;10.29;43.03;96116.31;5005308;28;20102;-67
2021/05/31 04:17:42;;;;;;;3.63;2.67;;;;;;;10.31;42.87;96109.88;5006345;28;20121;-66
2021/05/31 04:20:08;;;;;;;4.20;2.83;;;;;;;10.25;43.40;96110.50;5004149;28;20094;-66
2021/05/31 04:22:34;;;;;;;4.13;2.75;;;;;;;10.23;43.16;96116.00;5007939;28;20113;-66
2021/05/31 04:24:59;;;;;;;3.88;2.75;;;;;;;10.23;43.32;96116.00;5008779;28;20090;-66
2021/05/31 04:27:25;;;;;;;2.85;2.63;;;;;;;10.26;42.99;96108.69;5002304;28;20117;-67
2021/05/31 04:29:51;;;;;;;5.63;2.80;;;;;;;10.28;43.74;96115.53;5004607;28;20079;-66
2021/05/31 04:32:17;;;;;;;4.68;2.88;;;;;;;10.21;44.10;96117.97;4986697;28;20129;-66
2021/05/31 04:34:42;;;;;;;3.25;2.83;;;;;;;10.26;43.88;96117.50;5009505;28;20103;-66
2021/05/31 04:37:08;;;;;;;4.85;2.88;;;;;;;10.33;44.05;96115.84;5011185;28;20174;-66
2021/05/31 04:39:33;;;;;;;4.97;2.80;;;;;;;10.42;43.65;96115.84;5028816;28;20190;-66
2021/05/31 04:41:59;;;;;;;4.80;2.85;;;;;;;10.54;43.17;96119.84;5011247;28;20217;-66
2021/05/31 04:44:24;;;;;;;4.60;3.05;;;;;;;10.67;43.14;96115.88;5004921;28;20097;-67
2021/05/31 04:46:49;;;;;;;5.78;2.97;;;;;;;10.74;43.34;96117.69;5011180;28;20106;-66
2021/05/31 04:49:15;;;;;;;4.40;3.00;;;;;;;10.77;43.61;96119.19;5011799;28;20100;-66
2021/05/31 04:51:40;;;;;;;4.55;2.75;;;;;;;10.83;43.90;96121.19;5010034;28;20102;-66
2021/05/31 04:54:06;;;;;;;4.50;3.30;;;;;;;10.88;43.58;96118.84;5009548;28;20083;-66
2021/05/31 04:56:31;;;;;;;3.88;2.90;;;;;;;10.92;43.50;96119.38;5010654;28;20089;-66
2021/05/31 04:58:57;;;;;;;3.22;2.80;;;;;;;11.04;43.69;96122.50;4993073;28;20107;-66
2021/05/31 05:01:22;;;;;;;3.83;3.00;;;;;;;11.19;42.96;96121.84;5011450;28;20113;-66
2021/05/31 05:03:47;;;;;;;5.43;2.92;;;;;;;11.32;42.96;96121.34;5009978;28;20098;-66
2021/05/31 05:06:13;;;;;;;7.20;3.30;;;;;;;11.43;42.80;96112.13;5009908;28;20098;-66
2021/05/31 05:08:38;;;;;;;5.18;3.30;;;;;;;11.55;42.88;96112.56;5026605;28;20093;-66
2021/05/31 05:11:04;;;;;;;3.53;2.95;;;;;;;11.66;43.21;96116.72;5009552;28;20098;-66
2021/05/31 05:13:29;;;;;;;5.50;2.80;;;;;;;11.81;42.80;96115.00;4993435;28;20466;-67
2021/05/31 05:15:55;;;;;;;4.63;3.30;;;;;;;11.96;43.18;96109.75;5010537;28;20109;-66
2021/05/31 05:18:20;;;;;;;5.68;2.75;;;;;;;12.14;42.21;96122.84;5007446;28;20110;-66
2021/05/31 05:20:46;;;;;;;4.65;3.42;;;;;;;11.94;42.57;96125.13;5010459;28;20082;-66
2021/05/31 05:23:11;;;;;;;4.35;3.10;;;;;;;12.14;42.30;96122.84;5009751;28;20110;-66
2021/05/31 05:25:37;;;;;;;4.97;3.00;;;;;;;12.42;41.86;96121.53;5026250;28;20089;-66
2021/05/31 05:28:02;;;;;;;4.72;2.50;;;;;;;12.71;40.90;96121.81;5010244;28;20102;-66
2021/05/31 05:30:32;;;;;;;3.75;2.50;;;;;;;13.03;39.90;96119.91;5010264;28;20098;-66
2021/05/31 05:33:01;;;;;;;4.35;3.00;;;;;;;13.16;40.05;96124.63;5010410;28;20085;-67
2021/05/31 05:48:37;;;;;;;4.60;2.53;;;;;;;13.82;38.87;96112.38;5010159;28;20075;-66
2021/05/31 05:51:06;;;;;;;4.55;2.47;;;;;;;14.01;37.33;96105.63;5008801;28;20103;-66
2021/05/31 05:53:33;;;;;;;3.97;2.28;;;;;;;14.29;36.56;96106.75;5008685;28;20106;-67
2021/05/31 05:55:58;;;;;;;4.28;2.13;;;;;;;14.46;35.91;96107.34;5009002;28;20106;-66
2021/05/31 05:58:28;;;;;;;3.35;2.47;;;;;;;14.67;35.86;96108.34;5010083;28;20462;-66
2021/05/31 06:00:53;;;;;;;3.50;2.35;;;;;;;14.71;35.10;96110.47;4975652;28;20078;-66
2021/05/31 06:03:18;;;;;;;3.00;2.20;;;;;;;14.91;33.45;96104.47;5008941;28;20117;-66
2021/05/31 06:05:44;;;;;;;3.58;2.25;;;;;;;15.08;32.17;96099.66;5010063;28;20535;-67
2021/05/31 06:08:09;;;;;;;2.83;2.10;;;;;;;15.19;31.51;96110.84;5010281;28;20129;-66
2021/05/31 06:10:35;;;;;;;4.22;2.20;;;;;;;15.29;31.32;96107.81;5008969;28;20110;-67
2021/05/31 06:13:00;;;;;;;4.47;2.42;;;;;;;15.44;30.35;96102.38;5008433;28;20074;-67
2021/05/31 06:15:26;;;;;;;3.38;2.45;;;;;;;15.49;31.31;96106.13;5009527;28;20506;-67
2021/05/31 06:17:51;;;;;;;3.33;2.25;;;;;;;15.57;29.97;96104.34;5009956;28;20438;-66
2021/05/31 06:20:16;;;;;;;4.20;2.50;;;;;;;15.48;32.66;96104.47;5009489;28;20519;-66
2021/05/31 06:22:42;;;;;;;2.58;1.90;;;;;;;15.71;30.62;96107.91;5008921;28;20102;-67
2021/05/31 06:25:09;;;;;;;4.63;2.00;;;;;;;15.95;30.94;96106.56;5008774;28;20097;-67
2021/05/31 06:27:34;;;;;;;3.03;2.20;;;;;;;16.05;30.11;96100.00;5005825;28;20820;-66
2021/05/31 06:29:59;;;;;;;4.93;2.17;;;;;;;16.24;29.79;96095.69;4990416;28;20177;-67
2021/05/31 06:32:25;;;;;;;2.97;2.13;;;;;;;16.40;29.92;96091.84;5023248;28;20428;-67
2021/05/31 06:34:50;;;;;;;4.35;2.38;;;;;;;16.48;29.44;96097.03;5007539;28;20537;-66
2021/05/31 06:37:16;;;;;;;3.80;2.40;;;;;;;16.53;28.89;96093.75;5009811;28;20794;-67
2021/05/31 06:39:41;;;;;;;4.20;2.38;;;;;;;16.86;28.05;96094.81;5007652;28;20106;-67
2021/05/31 06:42:07;;;;;;;2.95;2.30;;;;;;;16.83;28.10;96100.59;5006668;28;20125;-67
2021/05/31 06:44:32;;;;;;;3.60;2.80;;;;;;;16.52;31.57;96097.44;5008205;28;20082;-67
2021/05/31 06:46:58;;;;;;;4.05;3.15;;;;;;;16.13;31.80;96097.97;5006960;28;20121;-66
2021/05/31 06:49:23;;;;;;;4.22;3.33;;;;;;;16.19;29.70;96095.50;5009344;28;20515;-67
2021/05/31 06:51:49;;;;;;;5.20;4.03;;;;;;;16.06;32.73;96101.63;5008401;28;20597;-67
2021/05/31 06:54:14;;;;;;;6.55;4.90;;;;;;;16.40;31.12;96094.53;5022953;28;20106;-66
2021/05/31 06:56:40;;;;;;;6.05;4.22;;;;;;;16.32;30.90;96092.00;4994555;28;20102;-66
2021/05/31 06:59:05;;;;;;;7.35;5.13;;;;;;;16.62;31.24;96094.34;5008130;28;20905;-66
2021/05/31 07:01:31;;;;;;;7.50;4.78;;;;;;;16.54;30.75;96097.22;5009636;28;20101;-66
2021/05/31 07:03:56;;;;;;;5.25;3.22;;;;;;;16.60;30.21;96091.91;5007264;28;20102;-67
2021/05/31 07:06:21;;;;;;;7.55;4.65;;;;;;;16.43;30.77;96088.75;5007845;28;20686;-67
2021/05/31 07:08:47;;;;;;;6.85;4.85;;;;;;;16.61;31.79;96092.69;5007281;28;20476;-67
2021/05/31 07:11:16;;;;;;;10.48;6.22;;;;;;;16.70;31.27;96090.66;5003934;28;20209;-67
2021/05/31 07:13:42;;;;;;;8.98;6.20;;;;;;;16.91;30.70;96086.94;5007938;28;20086;-66
2021/05/31 07:16:12;;;;;;;9.30;6.95;;;;;;;17.14;30.92;96083.03;5007046;28;20768;-67
2021/05/31 07:18:38;;;;;;;7.65;5.57;;;;;;;17.08;30.33;96083.81;5005601;28;20204;-66
2021/05/31 07:21:04;;;;;;;10.32;6.35;;;;;;;17.17;30.82;96079.91;4990952;28;20516;-66
2021/05/31 07:23:29;;;;;;;9.50;5.25;;;;;;;17.43;30.65;96086.28;5008059;28;20136;-66
2021/05/31 07:25:55;;;;;;;9.32;6.22;;;;;;;17.66;30.11;96076.91;5005911;28;20071;-66
2021/05/31 07:28:20;;;;;;;8.98;4.20;;;;;;;17.94;31.09;96080.34;5023820;28;20078;-66
2021/05/31 07:30:46;;;;;;;10.02;4.75;;;;;;;17.91;29.86;96081.59;5006416;28;20105;-66
2021/05/31 07:33:13;;;;;;;12.65;6.97;;;;;;;18.06;29.69;96073.25;5003047;28;20094;-66
2021/05/31 07:35:38;;;;;;;11.87;6.80;;;;;;;18.17;29.61;96074.41;5006846;28;20102;-66
2021/05/31 07:38:04;;;;;;;12.43;7.85;;;;;;;18.08;29.55;96075.72;4992663;28;20097;-66
2021/05/31 07:40:30;;;;;;;4.20;3.15;;;;;;;18.56;29.39;96075.22;5007058;28;20137;-66
2021/05/31 07:42:55;;;;;;;8.38;5.97;;;;;;;18.59;28.48;96075.88;4986069;28;20645;-66
2021/05/31 07:45:21;;;;;;;6.18;3.60;;;;;;;18.78;27.87;96069.50;5006381;28;20117;-66
2021/05/31 07:47:46;;;;;;;10.13;7.18;;;;;;;18.69;28.55;96073.50;5007420;28;20157;-66
2021/05/31 07:50:14;;;;;;;10.68;6.60;;;;;;;18.91;28.70;96068.56;4971977;28;20110;-66
2021/05/31 07:52:39;;;;;;;10.45;6.95;;;;;;;19.07;28.04;96072.56;5007984;28;20132;-66
2021/05/31 07:55:07;;;;;;;9.88;6.18;;;;;;;19.03;29.24;96074.03;5007672;28;20102;-66
2021/05/31 07:57:33;;;;;;;11.25;7.38;;;;;;;19.30;28.07;96078.38;5016988;28;20173;-66
2021/05/31 07:59:58;;;;;;;9.50;6.88;;;;;;;19.67;27.69;96074.88;5007546;28;20751;-67
2021/05/31 08:02:24;;;;;;;7.28;4.13;;;;;;;19.77;27.79;96080.59;5004275;28;20110;-66
2021/05/31 08:04:49;;;;;;;7.65;5.97;;;;;;;19.90;26.99;96081.47;5008042;28;20078;-65
2021/05/31 08:07:15;;;;;;;9.55;6.82;;;;;;;19.84;27.24;96075.94;5006999;28;20177;-65
2021/05/31 08:09:40;;;;;;;7.15;4.75;;;;;;;19.85;27.06;96082.97;5011747;28;20078;-66
2021/05/31 08:12:06;;;;;;;6.35;3.80;;;;;;;20.12;26.94;96076.44;4992621;28;20134;-64
2021/05/31 08:14:32;;;;;;;9.52;7.60;;;;;;;20.05;27.12;96073.00;5009790;28;20094;-65
2021/05/31 08:16:57;;;;;;;10.38;7.30;;;;;;;20.17;26.86;96075.75;5010029;28;20136;-64
2021/05/31 08:19:26;;;;;;;9.52;5.07;;;;;;;20.53;25.98;96078.59;5010261;28;20110;-65
2021/05/31 08:21:51;;;;;;;7.03;5.25;;;;;;;20.80;26.10;96078.22;5010470;28;20174;-65
2021/05/31 08:24:18;;;;;;;10.95;6.78;;;;;;;20.57;25.66;96072.47;5011158;28;20165;-66
2021/05/31 08:26:44;;;;;;;6.43;4.53;;;;;;;20.58;25.85;96073.31;5012317;28;20106;-65
2021/05/31 08:29:10;;;;;;;11.43;7.75;;;;;;;20.37;26.56;96078.19;5008045;28;20121;-65
2021/05/31 08:31:35;;;;;;;9.30;7.50;;;;;;;20.32;26.39;96067.22;5007902;28;20112;-66
2021/05/31 08:34:01;;;;;;;8.70;5.78;;;;;;;20.33;26.38;96067.00;4998152;28;20524;-65
2021/05/31 08:36:26;;;;;;;11.30;7.93;;;;;;;20.35;26.12;96069.47;5004006;28;20074;-65
2021/05/31 08:38:58;;;;;;;10.82;9.35;;;;;;;20.33;25.68;96068.91;5006801;28;20117;-65
2021/05/31 08:41:24;;;;;;;9.32;6.97;;;;;;;20.18;26.59;96059.31;5005365;28;20125;-65
2021/05/31 08:43:50;;;;;;;10.97;7.70;;;;;;;20.44;25.98;96067.28;5002645;28;20125;-65
2021/05/31 08:46:15;;;;;;;12.00;8.75;;;;;;;20.69;26.19;96059.00;4981991;28;20352;-65
2021/05/31 08:48:41;;;;;;;10.13;6.75;;;;;;;20.54;26.30;96064.84;5004258;28;20079;-66
2021/05/31 08:51:09;;;;;;;13.73;10.57;;;;;;;20.56;25.79;96064.63;5000501;28;20468;-66
2021/05/31 08:53:36;;;;;;;10.43;8.05;;;;;;;20.87;25.28;96059.97;5004761;28;20479;-66
2021/05/31 08:56:02;;;;;;;6.15;3.92;;;;;;;20.94;24.87;96055.25;4968583;28;20374;-66
2021/05/31 08:58:28;;;;;;;7.75;3.78;;;;;;;21.39;24.90;96058.47;4997055;28;20114;-66
2021/05/31 09:00:54;;;;;;;11.23;8.43;;;;;;;21.05;25.23;96060.94;4984260;28;20145;-66
2021/05/31 09:03:19;;;;;;;8.50;5.80;;;;;;;21.48;23.89;96051.63;5004159;28;20201;-66
2021/05/31 09:05:45;;;;;;;12.13;9.38;;;;;;;21.20;25.22;96052.31;4996064;28;20094;-66
2021/05/31 09:08:18;;;;;;;9.25;6.80;;;;;;;21.24;24.55;96042.66;4999536;28;20189;-66
2021/05/31 09:10:46;;;;;;;7.00;4.78;;;;;;;21.55;24.83;96050.69;4990683;28;20194;-66
2021/05/31 09:13:27;;;;;;;9.68;7.90;;;;;;;21.63;24.75;96051.16;4999292;28;20090;-65
2021/05/31 09:16:18;;;;;;;10.07;8.05;;;;;;;21.53;24.04;96056.34;5001191;28;20381;-66
2021/05/31 09:18:51;;;;;;;13.07;9.00;;;;;;;21.72;23.61;96050.78;5015375;28;20126;-66
2021/05/31 09:21:30;;;;;;;5.10;3.10;;;;;;;22.19;21.97;96055.22;5003625;28;20089;-66
2021/05/31 09:24:02;;;;;;;6.50;3.40;;;;;;;22.40;23.20;96053.69;5010959;28;20649;-66
2021/05/31 09:26:28;;;;;;;11.45;8.10;;;;;;;22.20;23.95;96042.50;4976631;28;20377;-66
2021/05/31 09:29:01;;;;;;;10.75;7.03;;;;;;;22.32;23.80;96045.97;5018004;28;20086;-66
2021/05/31 09:31:27;;;;;;;5.18;4.28;;;;;;;22.76;23.70;96044.56;4987116;28;20111;-66
2021/05/31 09:34:06;;;;;;;8.25;6.05;;;;;;;23.03;23.25;96038.47;5017411;28;20106;-66
2021/05/31 09:36:33;;;;;;;6.05;4.40;;;;;;;23.36;23.16;96042.22;4998776;28;20084;-66
2021/05/31 09:38:59;;;;;;;9.25;6.10;;;;;;;23.26;23.22;96047.50;4983185;28;20563;-66
2021/05/31 09:41:30;;;;;;;7.55;4.70;;;;;;;23.41;22.92;96049.59;5002707;28;20118;-66
2021/05/31 09:43:59;;;;;;;9.95;7.28;;;;;;;23.21;23.20;96050.16;5001355;28;20402;-66
2021/05/31 09:46:39;;;;;;;7.68;6.47;;;;;;;23.15;23.35;96044.63;4998652;28;20106;-65
2021/05/31 09:49:11;;;;;;;6.10;4.20;;;;;;;23.42;23.12;96043.94;5004234;28;20100;-66
2021/05/31 09:51:55;;;;;;;10.02;7.43;;;;;;;23.53;23.28;96046.78;5006998;28;20106;-66
2021/05/31 09:54:44;;;;;;;8.05;4.90;;;;;;;23.67;22.43;96045.34;5005954;28;20660;-66
2021/05/31 09:57:28;;;;;;;10.50;6.18;;;;;;;23.48;22.19;96038.59;5003521;28;20082;-66
2021/05/31 10:00:05;;;;;;;9.00;5.75;;;;;;;23.65;22.18;96042.06;4998596;28;20119;-66
2021/05/31 10:02:48;;;;;;;8.35;5.60;;;;;;;23.81;22.00;96032.22;4989191;28;20118;-66
2021/05/31 10:10:30;;;;;;;9.00;6.05;;;;;;;23.46;22.74;96035.28;5004827;28;20113;-66
2021/05/31 10:12:55;;;;;;;9.20;7.20;;;;;;;23.30;22.81;96037.78;5004044;28;20439;-66
2021/05/31 10:15:23;;;;;;;5.55;3.45;;;;;;;23.51;20.74;96027.19;5004447;28;20114;-66
2021/05/31 10:17:50;;;;;;;4.05;2.67;;;;;;;23.23;22.03;96032.53;5000669;28;20110;-65
2021/05/31 10:20:16;;;;;;;5.93;4.22;;;;;;;22.82;24.07;96032.72;4983356;28;20579;-65
2021/05/31 10:22:41;;;;;;;9.98;6.35;;;;;;;22.69;23.70;96030.31;5004390;28;20106;-65
2021/05/31 10:25:08;;;;;;;6.85;5.07;;;;;;;22.96;22.97;96037.81;4998582;28;20119;-65
2021/05/31 10:27:34;;;;;;;7.20;5.63;;;;;;;23.12;22.81;96033.44;5004345;28;20196;-65
2021/05/31 10:30:00;;;;;;;6.17;3.67;;;;;;;23.60;22.02;96022.97;4986812;28;20082;-66
2021/05/31 10:32:26;;;;;;;9.65;5.82;;;;;;;23.26;22.96;96020.34;5004437;28;20070;-66
2021/05/31 10:34:53;;;;;;;6.32;4.53;;;;;;;23.49;22.65;96026.63;5003469;28;20555;-69
2021/05/31 10:37:28;;;;;;;4.65;2.88;;;;;;;23.40;22.23;96018.09;5004310;28;20092;-66
2021/05/31 10:40:05;;;;;;;4.90;2.60;;;;;;;23.46;22.37;96018.97;4998535;28;20106;-66
2021/05/31 10:42:38;;;;;;;6.00;4.03;;;;;;;23.65;20.59;96016.75;5004607;28;20150;-66
2021/05/31 10:45:28;;;;;;;2.92;2.38;;;;;;;23.78;21.74;96016.44;5005476;28;20090;-66
2021/05/31 10:48:12;;;;;;;3.78;2.30;;;;;;;23.89;20.78;96009.19;4982081;28;20574;-66
2021/05/31 10:50:45;;;;;;;8.82;5.10;;;;;;;23.88;23.25;96010.28;5000689;28;20732;-66
2021/05/31 10:53:27;;;;;;;6.82;3.42;;;;;;;22.90;22.94;96013.31;5004028;28;20093;-66
2021/05/31 10:56:03;;;;;;;3.75;2.40;;;;;;;23.29;22.54;96009.81;4982930;28;20106;-65
2021/05/31 10:58:32;;;;;;;3.85;2.50;;;;;;;22.92;23.53;96007.63;5002963;28;20114;-65
2021/05/31 11:01:00;;;;;;;5.40;3.15;;;;;;;23.02;23.60;96004.25;5005839;28;20085;-66
2021/05/31 11:03:26;;;;;;;4.47;2.90;;;;;;;23.19;23.20;96006.13;5003444;28;20965;-66
2021/05/31 11:05:52;;;;;;;2.65;2.05;;;;;;;23.33;23.32;96010.13;5003958;28;20140;-65
2021/05/31 11:08:25;;;;;;;4.10;2.80;;;;;;;23.32;22.69;95999.53;5020057;28;20109;-66
2021/05/31 11:10:57;;;;;;;4.40;3.20;;;;;;;23.65;22.57;96001.28;5004105;28;20110;-66
2021/05/31 11:13:23;;;;;;;4.20;2.40;;;;;;;23.54;23.00;95994.91;5003436;28;20090;-66
2021/05/31 11:16:04;;;;;;;5.32;3.85;;;;;;;23.94;21.82;95995.66;5003359;28;20120;-66
2021/05/31 11:18:37;;;;;;;4.88;3.00;;;;;;;24.17;20.89;95996.44;5003183;28;20118;-66
2021/05/31 11:21:03;;;;;;;7.10;3.60;;;;;;;23.89;22.29;95990.16;4985069;28;20078;-65
2021/05/31 11:23:29;;;;;;;4.95;3.40;;;;;;;23.98;21.93;95987.00;5000122;28;20108;-66
2021/05/31 11:25:57;;;;;;;5.13;3.72;;;;;;;24.38;22.09;95993.94;5002819;28;20080;-66
2021/05/31 11:28:24;;;;;;;4.47;2.30;;;;;;;24.57;21.00;95977.22;5004960;28;20157;-66
2021/05/31 11:30:49;;;;;;;;;;;;;;;24.56;20.47;95984.56;5014832;28;20120;-66
2021/05/31 11:33:15;;;;;;;4.13;2.57;;;;;;;24.87;20.54;95977.69;5000596;28;19970;-66
2021/05/31 11:35:43;;;;;;;5.30;3.10;;;;;;;24.75;21.59;95972.47;5000285;28;20125;-66
2021/05/31 11:38:08;;;;;;;6.07;4.05;;;;;;;24.55;21.39;95974.78;4985057;28;20090;-66
2021/05/31 11:40:40;;;;;;;5.72;4.30;;;;;;;24.71;22.08;95989.31;4996966;28;20454;-66
2021/05/31 11:43:06;;;;;;;6.00;3.85;;;;;;;25.18;21.22;95984.19;4993650;28;20642;-66
2021/05/31 11:45:34;;;;;;;2.75;2.45;;;;;;;25.00;20.13;95971.00;5019483;28;20093;-66
2021/05/31 11:48:02;;;;;;;5.25;4.00;;;;;;;25.10;21.49;95973.78;5001457;28;20189;-66
2021/05/31 11:50:27;;;;;;;2.85;2.40;;;;;;;25.57;20.36;95974.03;5002348;28;20570;-66
2021/05/31 11:52:53;;;;;;;7.07;2.35;;;;;;;25.88;20.49;95976.84;4981814;28;20074;-66
2021/05/31 11:55:24;;;;;;;5.65;2.70;;;;;;;25.80;20.82;95974.66;5004237;28;20109;-66
2021/05/31 11:57:50;;;;;;;4.68;2.85;;;;;;;25.53;20.06;95978.38;5003124;28;20092;-68
2021/05/31 12:00:26;;;;;;;6.47;3.45;;;;;;;25.56;20.52;95975.13;4970012;28;20497;-67
2021/05/31 12:02:51;;;;;;;4.80;2.97;;;;;;;26.07;19.13;95970.94;4998393;28;20124;-67
2021/05/31 12:05:33;;;;;;;5.43;3.17;;;;;;;26.01;19.96;95980.16;5002600;28;20082;-66